Rumney, New Hampshire
Current Conditions -  °F | °C
As of 12:35 AM on Tuesday 27 Jan 2015 (Local Time) from K1P1 Reporting Station
Overcast Overcast  
Wind Chill: 18°   Ceiling: 9000
Heat Index: 18°   Visibility: 10mi
Dew Point: -4°   Wind: 0mph
Humidity: 38%   Direction: NA
Pressure: 29.95"   Gusts: NA
Location:  43.81°N, 71.81°W
Report Text: K1P1 270535Z AUTO 00000KT 10SM OVC090 M08/M20 A2995 RMK AO2 T10801201
Loading
Personal Weather Stations






























Interactive Weather Map New forecast layout! Learn more

10-Day Weather Forecast

Advertisements
Track Severe Weather on mobile